Terminal Aerodrome Forecast
Issued by NWS Wichita, KS

Home | Current Version | Previous Version | Text Only | Print | Product List | Glossary On
Versions: 1 2 3 4 5 6 7 8 9 10 11 12 13 14 15 16 17 18 19 20 21 22 23 24 25
000
FTUS43 KICT 222329
TAFICT
TAF
KICT 222329Z 2300/2324 13011KT P6SM BKN025
     FM230300 13011KT 5SM -DZ BR SCT009 BKN015
      TEMPO 2306/2310 4SM -DZ BR SCT006 BKN009
     FM231500 15014KT 5SM -SHRA VCTS SCT006 OVC010CB=

USA.gov is the U.S. government's official web portal to all federal, state and local government web resources and services.